EXS6YG GCTS-EGCC
Flight info
| Callsign | EXS6YG |
|---|---|
| Flight time | 3h 40m |
| Altitude | 38000 |
| Route | KONBA UN866 BEXAL DCT TERVA DCT AGADO DCT KORUL DCT EBOMO DCT RUSIB DCT NOZHU/N0467F390 DCT SHIRI DCT TOJAQ DCT EPACE DCT ACCOP DCT MOCQO P16 AXCIS |
| Aircraft | A332/H-SDE3GHIJ2J3J5M1RVWXY/LB2D1 |
Departure
| Time | 2026-05-04 14:11 |
|---|---|
| Airport | Tenerife Sur Airport (GCTS) |
Arrival
| Time | 2026-05-04 17:52 |
|---|---|
| Airport | Manchester Airport (EGCC) |
| Time | Latitude | Longitude | Altitude | Speed | Heading |
|---|---|---|---|---|---|
| 2026-05-04 13:51 | 28.04782 | -16.57502 | 217 ft | 0 kts | 12° |
| 2026-05-04 14:00 | 28.04770 | -16.57504 | 206 ft | 2 kts | 348° |
| 2026-05-04 14:00 | 28.04742 | -16.57486 | 215 ft | 2 kts | 309° |
| 2026-05-04 14:00 | 28.04733 | -16.57470 | 214 ft | 2 kts | 297° |
| 2026-05-04 14:01 | 28.04726 | -16.57454 | 216 ft | 2 kts | 288° |
| 2026-05-04 14:01 | 28.04722 | -16.57436 | 216 ft | 2 kts | 281° |
| 2026-05-04 14:01 | 28.04719 | -16.57410 | 214 ft | 0 kts | 251° |
| 2026-05-04 14:05 | 28.04718 | -16.57413 | 215 ft | 1 kts | 251° |
| 2026-05-04 14:06 | 28.04712 | -16.57434 | 214 ft | 5 kts | 251° |
| 2026-05-04 14:06 | 28.04693 | -16.57471 | 217 ft | 6 kts | 220° |
| 2026-05-04 14:06 | 28.04652 | -16.57471 | 218 ft | 6 kts | 165° |
| 2026-05-04 14:06 | 28.04607 | -16.57455 | 206 ft | 7 kts | 161° |
| 2026-05-04 14:07 | 28.04562 | -16.57472 | 215 ft | 7 kts | 232° |
| 2026-05-04 14:07 | 28.04536 | -16.57530 | 212 ft | 10 kts | 248° |
| 2026-05-04 14:07 | 28.04506 | -16.57613 | 215 ft | 14 kts | 248° |
| 2026-05-04 14:07 | 28.04465 | -16.57729 | 214 ft | 18 kts | 248° |
| 2026-05-04 14:08 | 28.04414 | -16.57875 | 209 ft | 22 kts | 250° |
| 2026-05-04 14:08 | 28.04357 | -16.58046 | 209 ft | 24 kts | 247° |
| 2026-05-04 14:08 | 28.04289 | -16.58233 | 212 ft | 27 kts | 248° |
| 2026-05-04 14:08 | 28.04218 | -16.58440 | 210 ft | 29 kts | 248° |
| 2026-05-04 14:09 | 28.04088 | -16.58839 | 205 ft | 22 kts | 249° |
| 2026-05-04 14:09 | 28.04021 | -16.58989 | 207 ft | 18 kts | 212° |
| 2026-05-04 14:10 | 28.03908 | -16.58856 | 196 ft | 12 kts | 96° |
| 2026-05-04 14:10 | 28.03921 | -16.58759 | 208 ft | 15 kts | 74° |
| 2026-05-04 14:10 | 28.04000 | -16.58516 | 208 ft | 59 kts | 68° |
| 2026-05-04 14:10 | 28.04227 | -16.57876 | 209 ft | 115 kts | 68° |
| 2026-05-04 14:11 | 28.04584 | -16.56862 | 254 ft | 158 kts | 71° |
| 2026-05-04 14:11 | 28.05455 | -16.54562 | 1719 ft | 157 kts | 67° |
| 2026-05-04 14:11 | 28.05856 | -16.53353 | 2153 ft | 173 kts | 68° |
| 2026-05-04 14:12 | 28.06314 | -16.51987 | 2552 ft | 199 kts | 67° |
| 2026-05-04 14:12 | 28.06858 | -16.50422 | 2914 ft | 227 kts | 68° |
| 2026-05-04 14:12 | 28.08091 | -16.46810 | 3808 ft | 258 kts | 68° |
| 2026-05-04 14:13 | 28.08742 | -16.44877 | 4439 ft | 266 kts | 69° |
| 2026-05-04 14:13 | 28.09393 | -16.42880 | 5058 ft | 274 kts | 69° |
| 2026-05-04 14:13 | 28.10056 | -16.40832 | 5684 ft | 281 kts | 69° |
| 2026-05-04 14:13 | 28.10738 | -16.38720 | 6261 ft | 291 kts | 69° |
| 2026-05-04 14:14 | 28.11523 | -16.36591 | 6907 ft | 295 kts | 59° |
| 2026-05-04 14:14 | 28.14529 | -16.33569 | 8293 ft | 295 kts | 18° |
| 2026-05-04 14:14 | 28.16455 | -16.32836 | 9023 ft | 297 kts | 13° |
| 2026-05-04 14:15 | 28.20505 | -16.31538 | 10347 ft | 310 kts | 11° |
| 2026-05-04 14:15 | 28.24910 | -16.30156 | 10905 ft | 347 kts | 11° |
| 2026-05-04 14:16 | 28.29775 | -16.28614 | 11673 ft | 373 kts | 12° |
| 2026-05-04 14:16 | 28.32301 | -16.27809 | 12242 ft | 380 kts | 11° |
| 2026-05-04 14:17 | 28.37468 | -16.26162 | 13456 ft | 390 kts | 11° |
| 2026-05-04 14:17 | 28.40067 | -16.25334 | 14046 ft | 395 kts | 11° |
| 2026-05-04 14:17 | 28.45418 | -16.23628 | 15183 ft | 402 kts | 11° |
| 2026-05-04 14:18 | 28.48130 | -16.22762 | 15749 ft | 406 kts | 11° |
| 2026-05-04 14:18 | 28.53624 | -16.21006 | 16868 ft | 413 kts | 11° |
| 2026-05-04 14:19 | 28.59170 | -16.19236 | 18003 ft | 418 kts | 11° |
| 2026-05-04 14:19 | 28.61986 | -16.18336 | 18528 ft | 422 kts | 11° |
| 2026-05-04 14:19 | 28.64833 | -16.17425 | 18968 ft | 426 kts | 11° |
| 2026-05-04 14:19 | 28.67705 | -16.16506 | 19406 ft | 430 kts | 11° |
| 2026-05-04 14:20 | 28.70611 | -16.15575 | 19747 ft | 437 kts | 11° |
| 2026-05-04 14:20 | 28.73576 | -16.14627 | 19945 ft | 448 kts | 11° |
| 2026-05-04 14:20 | 28.76602 | -16.13658 | 20211 ft | 455 kts | 11° |
| 2026-05-04 14:21 | 28.82720 | -16.11693 | 20979 ft | 463 kts | 11° |
| 2026-05-04 14:21 | 28.85830 | -16.10693 | 21400 ft | 466 kts | 11° |
| 2026-05-04 14:21 | 28.88957 | -16.09686 | 21810 ft | 468 kts | 11° |
| 2026-05-04 14:21 | 28.92110 | -16.08672 | 22219 ft | 472 kts | 11° |
| 2026-05-04 14:22 | 28.95277 | -16.07652 | 22614 ft | 475 kts | 11° |
| 2026-05-04 14:22 | 28.98477 | -16.06622 | 23015 ft | 478 kts | 11° |
| 2026-05-04 14:22 | 29.01689 | -16.05586 | 23415 ft | 481 kts | 11° |
| 2026-05-04 14:22 | 29.04918 | -16.04545 | 23779 ft | 484 kts | 11° |
| 2026-05-04 14:23 | 29.11406 | -16.02450 | 24450 ft | 490 kts | 11° |
| 2026-05-04 14:23 | 29.14695 | -16.01388 | 24807 ft | 492 kts | 11° |
| 2026-05-04 14:23 | 29.18009 | -16.00316 | 25161 ft | 494 kts | 11° |
| 2026-05-04 14:24 | 29.21332 | -15.99241 | 25479 ft | 497 kts | 11° |
| 2026-05-04 14:24 | 29.24628 | -15.98173 | 25806 ft | 499 kts | 11° |
| 2026-05-04 14:24 | 29.27984 | -15.97086 | 26140 ft | 502 kts | 11° |
| 2026-05-04 14:24 | 29.31348 | -15.95995 | 26462 ft | 504 kts | 10° |
| 2026-05-04 14:25 | 29.33638 | -15.95253 | 26667 ft | 506 kts | 10° |
| 2026-05-04 14:25 | 29.40395 | -15.93058 | 27113 ft | 509 kts | 10° |
| 2026-05-04 14:25 | 29.43805 | -15.91949 | 27341 ft | 510 kts | 11° |
| 2026-05-04 14:26 | 29.47231 | -15.90835 | 27548 ft | 511 kts | 11° |
| 2026-05-04 14:26 | 29.50651 | -15.89721 | 27751 ft | 512 kts | 10° |
| 2026-05-04 14:26 | 29.54097 | -15.88599 | 27964 ft | 514 kts | 10° |
| 2026-05-04 14:26 | 29.57546 | -15.87475 | 28175 ft | 515 kts | 10° |
| 2026-05-04 14:27 | 29.61001 | -15.86347 | 28372 ft | 517 kts | 10° |
| 2026-05-04 14:27 | 29.64418 | -15.85232 | 28583 ft | 519 kts | 10° |
| 2026-05-04 14:27 | 29.67901 | -15.84094 | 28801 ft | 520 kts | 10° |
| 2026-05-04 14:27 | 29.71394 | -15.82953 | 29018 ft | 522 kts | 10° |
| 2026-05-04 14:28 | 29.74892 | -15.81808 | 29233 ft | 524 kts | 10° |
| 2026-05-04 14:28 | 29.78411 | -15.80657 | 29439 ft | 527 kts | 10° |
| 2026-05-04 14:28 | 29.81948 | -15.79498 | 29768 ft | 528 kts | 10° |
| 2026-05-04 14:28 | 29.85487 | -15.78336 | 30173 ft | 527 kts | 10° |
| 2026-05-04 14:29 | 29.92510 | -15.76030 | 30833 ft | 527 kts | 9° |
| 2026-05-04 14:29 | 29.99580 | -15.73706 | 31476 ft | 527 kts | 9° |
| 2026-05-04 14:30 | 30.03113 | -15.72543 | 31864 ft | 526 kts | 9° |
| 2026-05-04 14:30 | 30.06638 | -15.71382 | 32200 ft | 526 kts | 9° |
| 2026-05-04 14:30 | 30.13641 | -15.69073 | 32820 ft | 526 kts | 9° |
| 2026-05-04 14:31 | 30.17165 | -15.67910 | 33104 ft | 526 kts | 9° |
| 2026-05-04 14:31 | 30.24223 | -15.65578 | 33702 ft | 526 kts | 9° |
| 2026-05-04 14:32 | 30.31263 | -15.63248 | 34308 ft | 525 kts | 9° |
| 2026-05-04 14:32 | 30.34780 | -15.62082 | 34606 ft | 524 kts | 9° |
| 2026-05-04 14:32 | 30.38281 | -15.60921 | 34835 ft | 524 kts | 9° |
| 2026-05-04 14:32 | 30.41747 | -15.59772 | 35050 ft | 524 kts | 9° |
| 2026-05-04 14:33 | 30.45270 | -15.58603 | 35269 ft | 524 kts | 9° |
| 2026-05-04 14:33 | 30.48784 | -15.57435 | 35492 ft | 524 kts | 9° |
| 2026-05-04 14:33 | 30.52303 | -15.56265 | 35722 ft | 525 kts | 9° |
| 2026-05-04 14:33 | 30.55813 | -15.55097 | 35941 ft | 525 kts | 9° |
| 2026-05-04 14:34 | 30.59277 | -15.53943 | 36180 ft | 524 kts | 9° |
| 2026-05-04 14:34 | 30.62782 | -15.52775 | 36442 ft | 523 kts | 9° |
| 2026-05-04 14:34 | 30.66289 | -15.51605 | 36653 ft | 523 kts | 9° |
| 2026-05-04 14:34 | 30.69791 | -15.50436 | 36840 ft | 524 kts | 9° |
| 2026-05-04 14:35 | 30.73299 | -15.49265 | 37058 ft | 524 kts | 9° |
| 2026-05-04 14:35 | 30.76808 | -15.48092 | 37247 ft | 524 kts | 9° |
| 2026-05-04 14:35 | 30.80312 | -15.46920 | 37449 ft | 524 kts | 9° |
| 2026-05-04 14:35 | 30.83776 | -15.45760 | 37633 ft | 524 kts | 9° |
| 2026-05-04 14:36 | 30.87286 | -15.44584 | 37866 ft | 524 kts | 9° |
| 2026-05-04 14:36 | 30.90780 | -15.43412 | 38074 ft | 523 kts | 9° |
| 2026-05-04 14:36 | 30.94270 | -15.42240 | 38101 ft | 519 kts | 9° |
| 2026-05-04 14:37 | 31.01184 | -15.39915 | 38102 ft | 515 kts | 9° |
| 2026-05-04 14:37 | 31.08078 | -15.37598 | 38103 ft | 515 kts | 9° |
| 2026-05-04 14:38 | 31.14926 | -15.35292 | 38129 ft | 515 kts | 9° |
| 2026-05-04 14:38 | 31.21803 | -15.32971 | 38104 ft | 514 kts | 9° |
| 2026-05-04 14:39 | 31.28659 | -15.30527 | 38101 ft | 518 kts | 15° |
| 2026-05-04 14:39 | 31.35096 | -15.26512 | 38105 ft | 528 kts | 27° |
| 2026-05-04 14:40 | 31.44258 | -15.19335 | 38120 ft | 531 kts | 30° |
| 2026-05-04 14:40 | 31.50358 | -15.14483 | 38106 ft | 527 kts | 29° |
| 2026-05-04 14:41 | 31.56425 | -15.09725 | 38107 ft | 527 kts | 29° |
| 2026-05-04 14:42 | 31.68652 | -15.00195 | 38105 ft | 527 kts | 29° |
| 2026-05-04 14:42 | 31.74762 | -14.95420 | 38121 ft | 527 kts | 29° |
| 2026-05-04 14:43 | 31.80810 | -14.90682 | 38108 ft | 524 kts | 29° |
| 2026-05-04 14:43 | 31.86874 | -14.85925 | 38109 ft | 524 kts | 29° |
| 2026-05-04 14:44 | 31.92950 | -14.81153 | 38106 ft | 524 kts | 29° |
| 2026-05-04 14:44 | 31.99019 | -14.76377 | 38108 ft | 524 kts | 29° |
| 2026-05-04 14:45 | 32.05083 | -14.71597 | 38112 ft | 523 kts | 29° |
| 2026-05-04 14:45 | 32.11124 | -14.66827 | 38106 ft | 522 kts | 29° |
| 2026-05-04 14:46 | 32.17126 | -14.62081 | 38113 ft | 522 kts | 29° |
| 2026-05-04 14:46 | 32.23158 | -14.57304 | 38106 ft | 522 kts | 29° |
| 2026-05-04 14:47 | 32.29194 | -14.52515 | 38107 ft | 522 kts | 29° |
| 2026-05-04 14:47 | 32.35222 | -14.47725 | 38119 ft | 521 kts | 29° |
| 2026-05-04 14:48 | 32.41226 | -14.42945 | 38116 ft | 520 kts | 29° |
| 2026-05-04 14:48 | 32.47192 | -14.38190 | 38114 ft | 520 kts | 29° |
| 2026-05-04 14:49 | 32.53196 | -14.33396 | 38116 ft | 520 kts | 29° |
| 2026-05-04 14:49 | 32.59198 | -14.28595 | 38116 ft | 520 kts | 29° |
| 2026-05-04 14:50 | 32.65164 | -14.23815 | 38116 ft | 520 kts | 29° |
| 2026-05-04 14:50 | 32.71164 | -14.19000 | 38118 ft | 520 kts | 29° |
| 2026-05-04 14:51 | 32.77157 | -14.14182 | 38116 ft | 519 kts | 29° |
| 2026-05-04 14:51 | 32.83146 | -14.09361 | 38116 ft | 519 kts | 29° |
| 2026-05-04 14:52 | 32.89092 | -14.04567 | 38142 ft | 519 kts | 29° |
| 2026-05-04 14:52 | 32.95069 | -13.99737 | 38118 ft | 518 kts | 30° |
| 2026-05-04 14:53 | 33.01039 | -13.94907 | 38117 ft | 518 kts | 30° |
| 2026-05-04 14:53 | 33.07007 | -13.90070 | 38116 ft | 518 kts | 30° |
| 2026-05-04 14:54 | 33.12937 | -13.85256 | 38127 ft | 518 kts | 29° |
| 2026-05-04 14:54 | 33.18902 | -13.80391 | 38141 ft | 518 kts | 30° |
| 2026-05-04 14:55 | 33.24847 | -13.75514 | 38122 ft | 517 kts | 30° |
| 2026-05-04 14:55 | 33.30745 | -13.70665 | 38113 ft | 517 kts | 30° |
| 2026-05-04 14:56 | 33.36673 | -13.65786 | 38124 ft | 517 kts | 30° |
| 2026-05-04 14:56 | 33.42605 | -13.60897 | 38127 ft | 517 kts | 30° |
| 2026-05-04 14:57 | 33.48541 | -13.55997 | 38130 ft | 517 kts | 31° |
| 2026-05-04 14:57 | 33.54416 | -13.51137 | 38129 ft | 514 kts | 31° |
| 2026-05-04 14:58 | 33.60308 | -13.46256 | 38130 ft | 515 kts | 30° |
| 2026-05-04 14:58 | 33.66214 | -13.41358 | 38129 ft | 516 kts | 30° |
| 2026-05-04 14:59 | 33.72127 | -13.36443 | 38133 ft | 516 kts | 30° |
| 2026-05-04 15:00 | 33.80950 | -13.29094 | 38138 ft | 516 kts | 31° |
| 2026-05-04 15:00 | 33.86850 | -13.24168 | 38135 ft | 516 kts | 31° |
| 2026-05-04 15:01 | 33.95702 | -13.16764 | 38136 ft | 516 kts | 31° |
| 2026-05-04 15:01 | 34.01589 | -13.11828 | 38136 ft | 516 kts | 31° |
| 2026-05-04 15:02 | 34.07460 | -13.06900 | 38138 ft | 518 kts | 31° |
| 2026-05-04 15:02 | 34.13375 | -13.01924 | 38137 ft | 518 kts | 31° |
| 2026-05-04 15:03 | 34.19289 | -12.96940 | 38138 ft | 518 kts | 31° |
| 2026-05-04 15:03 | 34.25210 | -12.91941 | 38138 ft | 518 kts | 31° |
| 2026-05-04 15:04 | 34.31131 | -12.86966 | 38159 ft | 518 kts | 31° |
| 2026-05-04 15:04 | 34.37026 | -12.82031 | 38140 ft | 518 kts | 30° |
| 2026-05-04 15:05 | 34.42964 | -12.77053 | 38144 ft | 518 kts | 30° |
| 2026-05-04 15:05 | 34.48879 | -12.72081 | 38140 ft | 519 kts | 30° |
| 2026-05-04 15:06 | 34.54816 | -12.67079 | 38140 ft | 519 kts | 30° |
| 2026-05-04 15:07 | 34.63721 | -12.59559 | 38139 ft | 518 kts | 30° |
| 2026-05-04 15:07 | 34.69636 | -12.54553 | 38141 ft | 517 kts | 30° |
| 2026-05-04 15:08 | 34.75509 | -12.49575 | 38140 ft | 517 kts | 30° |
| 2026-05-04 15:08 | 34.81421 | -12.44555 | 38140 ft | 517 kts | 30° |
| 2026-05-04 15:09 | 34.87330 | -12.39528 | 38161 ft | 518 kts | 30° |
| 2026-05-04 15:09 | 34.93224 | -12.34504 | 38139 ft | 516 kts | 30° |
| 2026-05-04 15:10 | 35.02016 | -12.26995 | 38141 ft | 516 kts | 30° |
| 2026-05-04 15:11 | 35.10837 | -12.19441 | 38141 ft | 516 kts | 30° |
| 2026-05-04 15:11 | 35.16714 | -12.14395 | 38133 ft | 515 kts | 29° |
| 2026-05-04 15:12 | 35.22570 | -12.09358 | 38137 ft | 513 kts | 29° |
| 2026-05-04 15:12 | 35.28376 | -12.04357 | 38142 ft | 513 kts | 29° |
| 2026-05-04 15:13 | 35.34217 | -11.99317 | 38147 ft | 513 kts | 29° |
| 2026-05-04 15:13 | 35.40062 | -11.94265 | 38134 ft | 514 kts | 29° |
| 2026-05-04 15:14 | 35.44927 | -11.90051 | 38141 ft | 514 kts | 29° |
| 2026-05-04 15:14 | 35.50737 | -11.85012 | 38134 ft | 514 kts | 29° |
| 2026-05-04 15:15 | 35.56587 | -11.79928 | 38140 ft | 514 kts | 29° |
| 2026-05-04 15:15 | 35.62421 | -11.74849 | 38133 ft | 514 kts | 29° |
| 2026-05-04 15:16 | 35.71136 | -11.67244 | 38140 ft | 513 kts | 29° |
| 2026-05-04 15:17 | 35.79878 | -11.59594 | 38133 ft | 513 kts | 29° |
| 2026-05-04 15:17 | 35.88564 | -11.51975 | 38133 ft | 513 kts | 29° |
| 2026-05-04 15:18 | 35.94389 | -11.46905 | 38132 ft | 510 kts | 25° |
| 2026-05-04 15:19 | 36.03944 | -11.41797 | 38135 ft | 495 kts | 12° |
| 2026-05-04 15:19 | 36.13758 | -11.37815 | 38129 ft | 494 kts | 10° |
| 2026-05-04 15:20 | 36.20274 | -11.35272 | 38134 ft | 494 kts | 10° |
| 2026-05-04 15:20 | 36.26830 | -11.32704 | 38133 ft | 492 kts | 10° |
| 2026-05-04 15:21 | 36.33359 | -11.30130 | 38133 ft | 492 kts | 10° |
| 2026-05-04 15:22 | 36.43145 | -11.26258 | 38139 ft | 492 kts | 10° |
| 2026-05-04 15:22 | 36.52881 | -11.22395 | 38135 ft | 490 kts | 11° |
| 2026-05-04 15:23 | 36.59381 | -11.19810 | 38132 ft | 490 kts | 11° |
| 2026-05-04 15:23 | 36.65882 | -11.17221 | 38131 ft | 490 kts | 11° |
| 2026-05-04 15:24 | 36.78829 | -11.12048 | 38128 ft | 487 kts | 11° |
| 2026-05-04 15:25 | 36.85280 | -11.09464 | 38130 ft | 486 kts | 11° |
| 2026-05-04 15:26 | 36.94908 | -11.05602 | 38129 ft | 486 kts | 11° |
| 2026-05-04 15:26 | 37.04564 | -11.01715 | 38128 ft | 484 kts | 11° |
| 2026-05-04 15:27 | 37.14180 | -10.97836 | 38129 ft | 484 kts | 11° |
| 2026-05-04 15:28 | 37.23800 | -10.93945 | 38134 ft | 483 kts | 11° |
| 2026-05-04 15:29 | 37.33356 | -10.90066 | 38130 ft | 482 kts | 11° |
| 2026-05-04 15:30 | 37.55685 | -10.80968 | 38129 ft | 480 kts | 11° |
| 2026-05-04 15:31 | 37.65216 | -10.77066 | 38127 ft | 480 kts | 11° |
| 2026-05-04 15:32 | 37.81069 | -10.70556 | 38124 ft | 480 kts | 11° |
| 2026-05-04 15:34 | 37.96957 | -10.63999 | 38127 ft | 480 kts | 11° |
| 2026-05-04 15:34 | 38.06452 | -10.60067 | 38127 ft | 480 kts | 11° |
| 2026-05-04 15:35 | 38.15990 | -10.56106 | 38125 ft | 480 kts | 11° |
| 2026-05-04 15:36 | 38.25529 | -10.52134 | 38120 ft | 480 kts | 11° |
| 2026-05-04 15:36 | 38.31844 | -10.49497 | 38120 ft | 480 kts | 11° |
| 2026-05-04 15:37 | 38.38195 | -10.46841 | 38118 ft | 480 kts | 11° |
| 2026-05-04 15:37 | 38.44565 | -10.44173 | 38125 ft | 481 kts | 11° |
| 2026-05-04 15:38 | 38.50918 | -10.41506 | 38113 ft | 480 kts | 11° |
| 2026-05-04 15:38 | 38.57232 | -10.38851 | 38115 ft | 480 kts | 11° |
| 2026-05-04 15:39 | 38.63601 | -10.36168 | 38115 ft | 480 kts | 11° |
| 2026-05-04 15:40 | 38.73098 | -10.32158 | 38119 ft | 480 kts | 11° |
| 2026-05-04 15:40 | 38.79445 | -10.29472 | 38116 ft | 480 kts | 11° |
| 2026-05-04 15:41 | 38.85807 | -10.26774 | 38113 ft | 480 kts | 11° |
| 2026-05-04 15:41 | 38.92116 | -10.24093 | 38124 ft | 480 kts | 11° |
| 2026-05-04 15:42 | 38.98466 | -10.21391 | 38110 ft | 480 kts | 11° |
| 2026-05-04 15:42 | 39.04822 | -10.18681 | 38108 ft | 481 kts | 11° |
| 2026-05-04 15:43 | 39.11190 | -10.15961 | 38110 ft | 482 kts | 11° |
| 2026-05-04 15:43 | 39.17559 | -10.13234 | 38115 ft | 482 kts | 11° |
| 2026-05-04 15:44 | 39.23890 | -10.10517 | 38111 ft | 482 kts | 11° |
| 2026-05-04 15:44 | 39.30262 | -10.07779 | 38112 ft | 482 kts | 11° |
| 2026-05-04 15:45 | 39.36626 | -10.05039 | 38109 ft | 482 kts | 11° |
| 2026-05-04 15:45 | 39.42993 | -10.02292 | 38112 ft | 482 kts | 12° |
| 2026-05-04 15:46 | 39.49327 | -9.99555 | 38111 ft | 482 kts | 12° |
| 2026-05-04 15:46 | 39.55700 | -9.96795 | 38116 ft | 482 kts | 12° |
| 2026-05-04 15:47 | 39.62065 | -9.94033 | 38117 ft | 482 kts | 12° |
| 2026-05-04 15:47 | 39.68434 | -9.91264 | 38108 ft | 482 kts | 12° |
| 2026-05-04 15:48 | 39.74750 | -9.88513 | 38099 ft | 482 kts | 12° |
| 2026-05-04 15:48 | 39.84287 | -9.84349 | 38137 ft | 482 kts | 12° |
| 2026-05-04 15:49 | 39.90647 | -9.81565 | 38108 ft | 482 kts | 12° |
| 2026-05-04 15:49 | 39.96968 | -9.78793 | 38102 ft | 482 kts | 12° |
| 2026-05-04 15:50 | 40.03333 | -9.75996 | 38099 ft | 482 kts | 12° |
| 2026-05-04 15:50 | 40.09693 | -9.73196 | 38107 ft | 482 kts | 12° |
| 2026-05-04 15:51 | 40.16053 | -9.70390 | 38105 ft | 482 kts | 12° |
| 2026-05-04 15:51 | 40.22375 | -9.67596 | 38099 ft | 482 kts | 12° |
| 2026-05-04 15:52 | 40.28727 | -9.64782 | 38104 ft | 482 kts | 12° |
| 2026-05-04 15:52 | 40.35085 | -9.61961 | 38091 ft | 482 kts | 12° |
| 2026-05-04 15:53 | 40.41448 | -9.59132 | 38092 ft | 482 kts | 12° |
| 2026-05-04 15:53 | 40.47775 | -9.56313 | 38098 ft | 482 kts | 12° |
| 2026-05-04 15:54 | 40.54129 | -9.53476 | 38094 ft | 482 kts | 13° |
| 2026-05-04 15:54 | 40.60489 | -9.50631 | 38091 ft | 483 kts | 13° |
| 2026-05-04 15:55 | 40.66861 | -9.47775 | 38089 ft | 483 kts | 13° |
| 2026-05-04 15:55 | 40.73192 | -9.44931 | 38089 ft | 483 kts | 13° |
| 2026-05-04 15:56 | 40.79570 | -9.42062 | 38083 ft | 485 kts | 13° |
| 2026-05-04 15:56 | 40.85960 | -9.39180 | 38088 ft | 485 kts | 13° |
| 2026-05-04 15:57 | 40.92370 | -9.36282 | 38084 ft | 485 kts | 13° |
| 2026-05-04 15:57 | 40.98717 | -9.33408 | 38098 ft | 485 kts | 13° |
| 2026-05-04 15:58 | 41.05112 | -9.30506 | 38084 ft | 485 kts | 13° |
| 2026-05-04 15:58 | 41.11509 | -9.27597 | 38080 ft | 485 kts | 13° |
| 2026-05-04 15:59 | 41.17898 | -9.24686 | 38080 ft | 485 kts | 13° |
| 2026-05-04 15:59 | 41.24289 | -9.21768 | 38075 ft | 485 kts | 14° |
| 2026-05-04 16:00 | 41.30676 | -9.18845 | 38078 ft | 485 kts | 14° |
| 2026-05-04 16:00 | 41.37012 | -9.15941 | 38078 ft | 485 kts | 14° |
| 2026-05-04 16:01 | 41.43398 | -9.13008 | 38078 ft | 485 kts | 14° |
| 2026-05-04 16:01 | 41.48702 | -9.10566 | 38076 ft | 485 kts | 14° |
| 2026-05-04 16:02 | 41.55089 | -9.07621 | 38075 ft | 486 kts | 14° |
| 2026-05-04 16:03 | 41.64706 | -9.03176 | 38092 ft | 487 kts | 14° |
| 2026-05-04 16:03 | 41.71122 | -9.00200 | 38073 ft | 487 kts | 14° |
| 2026-05-04 16:04 | 41.77487 | -8.97243 | 38069 ft | 487 kts | 14° |
| 2026-05-04 16:04 | 41.87072 | -8.92665 | 38072 ft | 490 kts | 19° |
| 2026-05-04 16:05 | 41.93256 | -8.88871 | 38070 ft | 490 kts | 21° |
| 2026-05-04 16:06 | 42.02490 | -8.82923 | 38071 ft | 491 kts | 21° |
| 2026-05-04 16:07 | 42.14823 | -8.74923 | 38070 ft | 490 kts | 21° |
| 2026-05-04 16:08 | 42.27103 | -8.66949 | 38076 ft | 491 kts | 21° |
| 2026-05-04 16:09 | 42.42455 | -8.56932 | 38076 ft | 490 kts | 22° |
| 2026-05-04 16:10 | 42.54746 | -8.48871 | 38072 ft | 490 kts | 22° |
| 2026-05-04 16:11 | 42.67046 | -8.40770 | 38070 ft | 490 kts | 22° |
| 2026-05-04 16:12 | 42.85408 | -8.28609 | 38074 ft | 490 kts | 22° |
| 2026-05-04 16:13 | 42.97678 | -8.20438 | 38072 ft | 490 kts | 23° |
| 2026-05-04 16:14 | 43.09891 | -8.12267 | 38060 ft | 490 kts | 23° |
| 2026-05-04 16:16 | 43.25185 | -8.01984 | 38068 ft | 489 kts | 23° |
| 2026-05-04 16:17 | 43.40413 | -7.91689 | 38049 ft | 489 kts | 24° |
| 2026-05-04 16:18 | 43.52582 | -7.83420 | 38037 ft | 488 kts | 24° |
| 2026-05-04 16:19 | 43.67810 | -7.73016 | 38028 ft | 487 kts | 24° |
| 2026-05-04 16:20 | 43.82996 | -7.62586 | 38017 ft | 486 kts | 24° |
| 2026-05-04 16:22 | 43.98120 | -7.52137 | 38016 ft | 487 kts | 25° |
| 2026-05-04 16:23 | 44.16270 | -7.39517 | 38003 ft | 486 kts | 25° |
| 2026-05-04 16:25 | 44.34350 | -7.26859 | 37996 ft | 485 kts | 25° |
| 2026-05-04 16:26 | 44.55428 | -7.11991 | 37993 ft | 485 kts | 25° |
| 2026-05-04 16:28 | 44.70485 | -7.01296 | 37990 ft | 485 kts | 25° |
| 2026-05-04 16:29 | 44.91339 | -6.85709 | 37982 ft | 485 kts | 30° |
| 2026-05-04 16:31 | 45.05924 | -6.73550 | 37987 ft | 486 kts | 29° |
| 2026-05-04 16:32 | 45.23406 | -6.59051 | 37979 ft | 485 kts | 30° |
| 2026-05-04 16:33 | 45.35058 | -6.49327 | 37980 ft | 485 kts | 30° |
| 2026-05-04 16:34 | 45.43755 | -6.42038 | 37979 ft | 485 kts | 30° |
| 2026-05-04 16:35 | 45.61154 | -6.27375 | 37985 ft | 484 kts | 30° |
| 2026-05-04 16:36 | 45.69862 | -6.19997 | 37980 ft | 485 kts | 30° |
| 2026-05-04 16:37 | 45.78573 | -6.12589 | 37980 ft | 485 kts | 30° |
| 2026-05-04 16:38 | 45.90138 | -6.02711 | 37977 ft | 484 kts | 30° |
| 2026-05-04 16:39 | 46.04609 | -5.90283 | 37980 ft | 485 kts | 31° |
| 2026-05-04 16:40 | 46.16151 | -5.80316 | 37980 ft | 484 kts | 31° |
| 2026-05-04 16:41 | 46.30607 | -5.67760 | 37979 ft | 484 kts | 31° |
| 2026-05-04 16:43 | 46.45010 | -5.55173 | 37982 ft | 486 kts | 31° |
| 2026-05-04 16:43 | 46.53683 | -5.47556 | 37979 ft | 485 kts | 31° |
| 2026-05-04 16:45 | 46.70993 | -5.32266 | 37980 ft | 485 kts | 31° |
| 2026-05-04 16:46 | 46.85403 | -5.19450 | 37981 ft | 487 kts | 32° |
| 2026-05-04 16:47 | 46.96960 | -5.09113 | 37977 ft | 486 kts | 32° |
| 2026-05-04 16:48 | 47.08465 | -4.98770 | 37978 ft | 486 kts | 32° |
| 2026-05-04 16:49 | 47.19003 | -4.89248 | 37977 ft | 485 kts | 32° |
| 2026-05-04 16:50 | 47.30470 | -4.78838 | 37980 ft | 485 kts | 32° |
| 2026-05-04 16:51 | 47.39095 | -4.70971 | 37982 ft | 484 kts | 32° |
| 2026-05-04 16:52 | 47.50522 | -4.60502 | 37982 ft | 484 kts | 32° |
| 2026-05-04 16:53 | 47.59109 | -4.52598 | 37984 ft | 484 kts | 32° |
| 2026-05-04 16:54 | 47.70556 | -4.42013 | 37982 ft | 484 kts | 32° |
| 2026-05-04 16:55 | 47.88446 | -4.28516 | 37992 ft | 484 kts | 17° |
| 2026-05-04 16:56 | 48.04602 | -4.21625 | 37993 ft | 483 kts | 16° |
| 2026-05-04 16:57 | 48.14317 | -4.17463 | 37989 ft | 484 kts | 16° |
| 2026-05-04 16:58 | 48.27218 | -4.11880 | 37985 ft | 483 kts | 16° |
| 2026-05-04 17:00 | 48.46572 | -4.03452 | 37989 ft | 484 kts | 16° |
| 2026-05-04 17:01 | 48.62718 | -3.96370 | 37994 ft | 483 kts | 16° |
| 2026-05-04 17:02 | 48.75615 | -3.90679 | 37991 ft | 482 kts | 17° |
| 2026-05-04 17:03 | 48.85239 | -3.86412 | 37986 ft | 482 kts | 17° |
| 2026-05-04 17:03 | 48.94916 | -3.82117 | 37982 ft | 482 kts | 14° |
| 2026-05-04 17:04 | 49.08230 | -3.80142 | 38241 ft | 484 kts | 2° |
| 2026-05-04 17:05 | 49.14977 | -3.79761 | 38402 ft | 490 kts | 2° |
| 2026-05-04 17:05 | 49.21822 | -3.79381 | 38696 ft | 492 kts | 2° |
| 2026-05-04 17:06 | 49.28673 | -3.78976 | 38969 ft | 490 kts | 2° |
| 2026-05-04 17:06 | 49.32064 | -3.78770 | 38984 ft | 485 kts | 2° |
| 2026-05-04 17:07 | 49.40973 | -3.78221 | 38991 ft | 480 kts | 2° |
| 2026-05-04 17:07 | 49.48738 | -3.77742 | 38991 ft | 480 kts | 2° |
| 2026-05-04 17:08 | 49.58749 | -3.77123 | 38990 ft | 479 kts | 2° |
| 2026-05-04 17:09 | 49.65418 | -3.76710 | 38986 ft | 479 kts | 2° |
| 2026-05-04 17:09 | 49.72044 | -3.76220 | 38988 ft | 479 kts | 4° |
| 2026-05-04 17:10 | 49.88643 | -3.74210 | 38990 ft | 478 kts | 4° |
| 2026-05-04 17:11 | 49.95241 | -3.73414 | 38990 ft | 478 kts | 4° |
| 2026-05-04 17:12 | 50.05245 | -3.72224 | 39103 ft | 484 kts | 4° |
| 2026-05-04 17:12 | 50.12013 | -3.71418 | 39241 ft | 489 kts | 4° |
| 2026-05-04 17:13 | 50.22160 | -3.70203 | 39664 ft | 489 kts | 4° |
| 2026-05-04 17:14 | 50.32356 | -3.68976 | 40117 ft | 489 kts | 4° |
| 2026-05-04 17:14 | 50.35748 | -3.68566 | 40210 ft | 490 kts | 4° |
| 2026-05-04 17:14 | 50.42533 | -3.67704 | 39976 ft | 484 kts | 6° |
| 2026-05-04 17:15 | 50.45872 | -3.67139 | 39738 ft | 481 kts | 7° |
| 2026-05-04 17:15 | 50.52485 | -3.65855 | 39288 ft | 481 kts | 7° |
| 2026-05-04 17:16 | 50.59133 | -3.64532 | 38848 ft | 481 kts | 7° |
| 2026-05-04 17:16 | 50.69106 | -3.62601 | 38072 ft | 480 kts | 7° |
| 2026-05-04 17:17 | 50.72422 | -3.61965 | 37793 ft | 480 kts | 7° |
| 2026-05-04 17:17 | 50.82346 | -3.60061 | 37004 ft | 480 kts | 7° |
| 2026-05-04 17:18 | 50.85664 | -3.59423 | 36748 ft | 480 kts | 7° |
| 2026-05-04 17:18 | 50.92298 | -3.58142 | 36243 ft | 480 kts | 8° |
| 2026-05-04 17:19 | 50.98943 | -3.56855 | 35744 ft | 480 kts | 8° |
| 2026-05-04 17:19 | 51.05579 | -3.55566 | 35260 ft | 480 kts | 8° |
| 2026-05-04 17:20 | 51.12181 | -3.54281 | 34788 ft | 480 kts | 8° |
| 2026-05-04 17:20 | 51.18820 | -3.52984 | 34319 ft | 480 kts | 8° |
| 2026-05-04 17:20 | 51.22146 | -3.52333 | 34094 ft | 480 kts | 8° |
| 2026-05-04 17:21 | 51.28800 | -3.51026 | 33538 ft | 481 kts | 8° |
| 2026-05-04 17:21 | 51.35409 | -3.49725 | 33014 ft | 481 kts | 8° |
| 2026-05-04 17:22 | 51.38735 | -3.49070 | 32749 ft | 482 kts | 8° |
| 2026-05-04 17:22 | 51.42064 | -3.48412 | 32485 ft | 483 kts | 8° |
| 2026-05-04 17:23 | 51.52065 | -3.46432 | 31697 ft | 485 kts | 8° |
| 2026-05-04 17:23 | 51.55429 | -3.45764 | 31435 ft | 484 kts | 8° |
| 2026-05-04 17:23 | 51.62109 | -3.44434 | 30926 ft | 483 kts | 8° |
| 2026-05-04 17:24 | 51.65447 | -3.43768 | 30676 ft | 484 kts | 8° |
| 2026-05-04 17:24 | 51.75465 | -3.41764 | 29920 ft | 486 kts | 8° |
| 2026-05-04 17:25 | 51.78824 | -3.41090 | 29709 ft | 486 kts | 8° |
| 2026-05-04 17:25 | 51.85537 | -3.39739 | 29358 ft | 486 kts | 7° |
| 2026-05-04 17:26 | 51.92297 | -3.38379 | 29015 ft | 491 kts | 7° |
| 2026-05-04 17:26 | 52.02485 | -3.37372 | 28523 ft | 489 kts | 2° |
| 2026-05-04 17:27 | 52.09255 | -3.37003 | 27979 ft | 484 kts | 2° |
| 2026-05-04 17:27 | 52.15972 | -3.36580 | 27443 ft | 481 kts | 2° |
| 2026-05-04 17:28 | 52.22617 | -3.36111 | 26555 ft | 479 kts | 2° |
| 2026-05-04 17:29 | 52.32482 | -3.35387 | 24906 ft | 462 kts | 3° |
| 2026-05-04 17:29 | 52.42062 | -3.34680 | 23464 ft | 457 kts | 3° |
| 2026-05-04 17:30 | 52.51462 | -3.33989 | 21824 ft | 445 kts | 3° |
| 2026-05-04 17:31 | 52.57564 | -3.33539 | 21265 ft | 436 kts | 3° |
| 2026-05-04 17:31 | 52.66421 | -3.30966 | 20497 ft | 432 kts | 19° |
| 2026-05-04 17:32 | 52.72052 | -3.27709 | 20054 ft | 430 kts | 20° |
| 2026-05-04 17:33 | 52.80460 | -3.22702 | 19166 ft | 426 kts | 20° |
| 2026-05-04 17:33 | 52.83242 | -3.21034 | 18523 ft | 424 kts | 20° |
| 2026-05-04 17:34 | 52.91669 | -3.17198 | 17214 ft | 417 kts | 4° |
| 2026-05-04 17:34 | 52.94523 | -3.16928 | 16836 ft | 414 kts | 2° |
| 2026-05-04 17:35 | 53.03075 | -3.16302 | 15685 ft | 404 kts | 2° |
| 2026-05-04 17:35 | 53.08675 | -3.15870 | 14928 ft | 400 kts | 2° |
| 2026-05-04 17:35 | 53.11453 | -3.15652 | 14560 ft | 398 kts | 2° |
| 2026-05-04 17:36 | 53.14177 | -3.15438 | 14182 ft | 396 kts | 2° |
| 2026-05-04 17:36 | 53.16924 | -3.15220 | 13808 ft | 394 kts | 1° |
| 2026-05-04 17:36 | 53.19648 | -3.15004 | 13428 ft | 390 kts | 2° |
| 2026-05-04 17:36 | 53.22311 | -3.14791 | 13215 ft | 375 kts | 1° |
| 2026-05-04 17:37 | 53.24881 | -3.14584 | 12890 ft | 364 kts | 1° |
| 2026-05-04 17:37 | 53.27382 | -3.14385 | 12541 ft | 355 kts | 1° |
| 2026-05-04 17:37 | 53.29822 | -3.14191 | 12195 ft | 347 kts | 2° |
| 2026-05-04 17:37 | 53.32208 | -3.14001 | 11877 ft | 339 kts | 1° |
| 2026-05-04 17:38 | 53.33756 | -3.13878 | 11665 ft | 334 kts | 2° |
| 2026-05-04 17:38 | 53.36051 | -3.13688 | 11351 ft | 327 kts | 1° |
| 2026-05-04 17:38 | 53.38256 | -3.12938 | 11089 ft | 322 kts | 21° |
| 2026-05-04 17:38 | 53.40028 | -3.10764 | 10882 ft | 315 kts | 49° |
| 2026-05-04 17:39 | 53.42316 | -3.04682 | 10314 ft | 307 kts | 59° |
| 2026-05-04 17:39 | 53.43365 | -3.01586 | 10033 ft | 302 kts | 59° |
| 2026-05-04 17:39 | 53.44404 | -2.98532 | 9639 ft | 302 kts | 58° |
| 2026-05-04 17:40 | 53.45451 | -2.95475 | 9239 ft | 301 kts | 59° |
| 2026-05-04 17:40 | 53.46487 | -2.92461 | 8929 ft | 296 kts | 59° |
| 2026-05-04 17:40 | 53.47510 | -2.89486 | 8584 ft | 293 kts | 58° |
| 2026-05-04 17:40 | 53.48525 | -2.86538 | 8302 ft | 290 kts | 59° |
| 2026-05-04 17:41 | 53.49525 | -2.83632 | 8061 ft | 285 kts | 58° |
| 2026-05-04 17:41 | 53.50501 | -2.80784 | 7889 ft | 277 kts | 59° |
| 2026-05-04 17:41 | 53.51447 | -2.78023 | 7722 ft | 269 kts | 59° |
| 2026-05-04 17:41 | 53.52359 | -2.75368 | 7564 ft | 263 kts | 58° |
| 2026-05-04 17:42 | 53.53246 | -2.72670 | 7270 ft | 265 kts | 65° |
| 2026-05-04 17:42 | 53.53761 | -2.69696 | 6931 ft | 266 kts | 80° |
| 2026-05-04 17:42 | 53.53979 | -2.66603 | 6570 ft | 267 kts | 84° |
| 2026-05-04 17:42 | 53.54135 | -2.63477 | 6198 ft | 268 kts | 84° |
| 2026-05-04 17:43 | 53.54281 | -2.60395 | 6060 ft | 259 kts | 84° |
| 2026-05-04 17:43 | 53.54418 | -2.57444 | 6049 ft | 254 kts | 85° |
| 2026-05-04 17:43 | 53.54545 | -2.54487 | 6051 ft | 254 kts | 85° |
| 2026-05-04 17:43 | 53.54667 | -2.51511 | 6049 ft | 254 kts | 85° |
| 2026-05-04 17:44 | 53.54794 | -2.48546 | 6040 ft | 254 kts | 85° |
| 2026-05-04 17:44 | 53.54922 | -2.45579 | 6048 ft | 254 kts | 85° |
| 2026-05-04 17:44 | 53.55046 | -2.42615 | 6048 ft | 254 kts | 84° |
| 2026-05-04 17:44 | 53.55167 | -2.39654 | 6049 ft | 254 kts | 85° |
| 2026-05-04 17:45 | 53.55294 | -2.36687 | 6053 ft | 253 kts | 85° |
| 2026-05-04 17:45 | 53.55235 | -2.33762 | 6053 ft | 254 kts | 96° |
| 2026-05-04 17:45 | 53.54944 | -2.30813 | 5814 ft | 258 kts | 99° |
| 2026-05-04 17:45 | 53.54613 | -2.27855 | 5538 ft | 255 kts | 99° |
| 2026-05-04 17:46 | 53.54284 | -2.24939 | 5297 ft | 251 kts | 100° |
| 2026-05-04 17:46 | 53.53962 | -2.22055 | 5016 ft | 250 kts | 100° |
| 2026-05-04 17:46 | 53.53641 | -2.19184 | 4717 ft | 250 kts | 100° |
| 2026-05-04 17:46 | 53.53318 | -2.16315 | 4421 ft | 249 kts | 100° |
| 2026-05-04 17:47 | 53.52996 | -2.13484 | 4153 ft | 248 kts | 103° |
| 2026-05-04 17:47 | 53.52254 | -2.10905 | 3876 ft | 247 kts | 131° |
| 2026-05-04 17:47 | 53.50975 | -2.08990 | 3577 ft | 245 kts | 143° |
| 2026-05-04 17:47 | 53.49627 | -2.07343 | 3488 ft | 233 kts | 145° |
| 2026-05-04 17:48 | 53.48274 | -2.05987 | 3374 ft | 221 kts | 163° |
| 2026-05-04 17:48 | 53.46794 | -2.05878 | 3273 ft | 209 kts | 193° |
| 2026-05-04 17:48 | 53.45436 | -2.06498 | 3195 ft | 197 kts | 199° |
| 2026-05-04 17:48 | 53.44160 | -2.07206 | 3010 ft | 191 kts | 200° |
| 2026-05-04 17:49 | 53.42917 | -2.07896 | 2774 ft | 191 kts | 200° |
| 2026-05-04 17:49 | 53.41722 | -2.08798 | 2543 ft | 186 kts | 224° |
| 2026-05-04 17:49 | 53.41052 | -2.10580 | 2495 ft | 181 kts | 254° |
| 2026-05-04 17:49 | 53.40722 | -2.12617 | 2497 ft | 181 kts | 259° |
| 2026-05-04 17:50 | 53.40441 | -2.14664 | 2380 ft | 179 kts | 259° |
| 2026-05-04 17:50 | 53.40169 | -2.16698 | 2143 ft | 178 kts | 260° |
| 2026-05-04 17:50 | 53.39763 | -2.18626 | 1906 ft | 175 kts | 239° |
| 2026-05-04 17:50 | 53.38991 | -2.20132 | 1557 ft | 167 kts | 230° |
| 2026-05-04 17:51 | 53.38239 | -2.21575 | 1109 ft | 164 kts | 233° |
| 2026-05-04 17:51 | 53.37552 | -2.23049 | 771 ft | 157 kts | 234° |
| 2026-05-04 17:51 | 53.36879 | -2.24399 | 540 ft | 145 kts | 231° |
| 2026-05-04 17:51 | 53.36261 | -2.25657 | 331 ft | 135 kts | 231° |
| 2026-05-04 17:52 | 53.35690 | -2.26844 | 269 ft | 123 kts | 231° |
| 2026-05-04 17:52 | 53.35301 | -2.27651 | 244 ft | 48 kts | 231° |
| 2026-05-04 17:52 | 53.35146 | -2.27975 | 237 ft | 35 kts | 231° |
| 2026-05-04 17:52 | 53.35005 | -2.28284 | 238 ft | 33 kts | 241° |
| 2026-05-04 17:53 | 53.34945 | -2.28614 | 235 ft | 17 kts | 264° |
| 2026-05-04 17:53 | 53.34963 | -2.28732 | 233 ft | 9 kts | 309° |
| 2026-05-04 17:53 | 53.34975 | -2.28747 | 234 ft | 0 kts | 326° |
| 2026-05-04 17:53 | 53.34977 | -2.28748 | 234 ft | 0 kts | 335° |
| 2026-05-04 17:54 | 53.34983 | -2.28750 | 231 ft | 1 kts | 345° |
| 2026-05-04 17:54 | 53.34992 | -2.28746 | 231 ft | 2 kts | 11° |
| 2026-05-04 17:54 | 53.35010 | -2.28735 | 232 ft | 3 kts | 25° |
| 2026-05-04 17:54 | 53.35031 | -2.28709 | 235 ft | 4 kts | 44° |
| 2026-05-04 17:55 | 53.35052 | -2.28671 | 237 ft | 5 kts | 48° |
| 2026-05-04 17:55 | 53.35079 | -2.28618 | 236 ft | 7 kts | 50° |
| 2026-05-04 17:55 | 53.35122 | -2.28531 | 234 ft | 12 kts | 52° |
| 2026-05-04 17:55 | 53.35179 | -2.28408 | 236 ft | 13 kts | 52° |
| 2026-05-04 17:56 | 53.35232 | -2.28299 | 241 ft | 11 kts | 48° |
| 2026-05-04 17:56 | 53.35298 | -2.28209 | 236 ft | 12 kts | 28° |
| 2026-05-04 17:56 | 53.35377 | -2.28169 | 239 ft | 11 kts | 11° |
| 2026-05-04 17:56 | 53.35457 | -2.28148 | 238 ft | 13 kts | 12° |
| 2026-05-04 17:57 | 53.35543 | -2.28067 | 238 ft | 14 kts | 45° |
| 2026-05-04 17:57 | 53.35601 | -2.27949 | 243 ft | 12 kts | 50° |
| 2026-05-04 17:57 | 53.35662 | -2.27891 | 246 ft | 9 kts | 10° |
| 2026-05-04 17:57 | 53.35712 | -2.27881 | 249 ft | 6 kts | 6° |
| 2026-05-04 17:58 | 53.35744 | -2.27875 | 251 ft | 4 kts | 6° |
| 2026-05-04 17:58 | 53.35746 | -2.27875 | 251 ft | 0 kts | 6° |
| 2026-05-04 17:59 | 53.35768 | -2.27870 | 252 ft | 8 kts | 7° |
| 2026-05-04 17:59 | 53.35953 | -2.27865 | 259 ft | 19 kts | 340° |
| 2026-05-04 18:00 | 53.36051 | -2.27985 | 259 ft | 0 kts | 318° |
| 2026-05-04 18:00 | 53.36055 | -2.27992 | 259 ft | 0 kts | 319° |
| 2026-05-04 18:00 | 53.36058 | -2.27996 | 259 ft | 3 kts | 319° |
| 2026-05-04 18:00 | 53.36096 | -2.28053 | 259 ft | 11 kts | 316° |
| 2026-05-04 18:01 | 53.36110 | -2.28075 | 259 ft | 0 kts | 316° |
| 2026-05-04 18:02 | 53.36186 | -2.28201 | 259 ft | 16 kts | 314° |
| 2026-05-04 18:02 | 53.36266 | -2.28338 | 259 ft | 15 kts | 314° |
| 2026-05-04 18:02 | 53.36302 | -2.28398 | 259 ft | 0 kts | 315° |
| 2026-05-04 18:03 | 53.36308 | -2.28409 | 259 ft | 4 kts | 315° |
| 2026-05-04 18:03 | 53.36347 | -2.28463 | 259 ft | 10 kts | 328° |
| 2026-05-04 18:03 | 53.36430 | -2.28511 | 259 ft | 15 kts | 327° |
| 2026-05-04 18:03 | 53.36517 | -2.28650 | 259 ft | 20 kts | 317° |
| 2026-05-04 18:04 | 53.36606 | -2.28840 | 259 ft | 21 kts | 303° |
| 2026-05-04 18:04 | 53.36709 | -2.29023 | 259 ft | 19 kts | 315° |
| 2026-05-04 18:04 | 53.36820 | -2.29038 | 259 ft | 4 kts | 72° |
| 2026-05-04 18:05 | 53.36809 | -2.28989 | 259 ft | 6 kts | 122° |
| 2026-05-04 18:05 | 53.36776 | -2.28929 | 259 ft | 8 kts | 134° |
| 2026-05-04 18:05 | 53.36768 | -2.28916 | 259 ft | 0 kts | 134° |